Time;durP1;ratioP1;P1;durP2;ratioP2;P2;SDS_P1;SDS_P2;PMS_P1;PMS_P2;Temp;Humidity;BMP_temperature;BMP_pressure;BME280_temperature;BME280_humidity;BME280_pressure;Samples;Min_cycle;Max_cycle;Signal;HPM_P1;HPM_P2
2022/08/30 00:01:08;;;;;;;7.35;3.40;;;;;;;15.42;63.75;98871.78;5025393;28;20033;-78
2022/08/30 00:03:39;;;;;;;6.45;3.17;;;;;;;15.40;63.89;98872.09;5029119;28;20091;-77
2022/08/30 00:06:06;;;;;;;6.93;3.60;;;;;;;15.41;63.80;98883.97;5028284;28;20063;-77
2022/08/30 00:08:33;;;;;;;8.05;3.78;;;;;;;15.39;64.03;98876.00;5033735;28;20041;-78
2022/08/30 00:11:00;;;;;;;5.95;3.53;;;;;;;15.39;64.22;98878.75;5012993;28;20071;-78
2022/08/30 00:13:26;;;;;;;7.90;3.50;;;;;;;15.39;63.84;98873.22;5013867;28;20025;-78
2022/08/30 00:15:52;;;;;;;6.75;3.50;;;;;;;15.38;64.26;98879.09;5029297;28;20053;-78
2022/08/30 00:18:20;;;;;;;6.38;3.65;;;;;;;15.39;64.52;98878.75;5032644;28;20505;-78
2022/08/30 00:20:48;;;;;;;7.85;3.83;;;;;;;15.40;64.01;98880.38;5015158;28;20022;-78
2022/08/30 00:23:14;;;;;;;8.75;4.20;;;;;;;15.38;64.02;98879.88;5027633;28;20060;-78
2022/08/30 00:25:40;;;;;;;6.68;3.75;;;;;;;15.38;64.05;98876.31;5032942;28;20053;-79
2022/08/30 00:28:06;;;;;;;6.43;3.50;;;;;;;15.35;64.21;98875.00;5032185;28;20578;-79
2022/08/30 00:30:31;;;;;;;8.35;3.95;;;;;;;15.32;63.93;98882.00;5033366;28;20053;-79
2022/08/30 00:32:57;;;;;;;8.57;4.05;;;;;;;15.32;64.30;98886.69;5036810;28;20101;-78
2022/08/30 00:35:23;;;;;;;9.02;4.00;;;;;;;15.31;64.14;98877.59;5017880;28;20061;-78
2022/08/30 00:37:49;;;;;;;6.78;3.95;;;;;;;15.31;64.06;98879.53;5032598;28;20071;-78
2022/08/30 00:40:16;;;;;;;7.57;3.80;;;;;;;15.30;64.36;98883.41;5036312;28;20053;-78
2022/08/30 00:42:43;;;;;;;8.43;3.88;;;;;;;15.27;64.59;98878.56;5036328;28;20032;-78
2022/08/30 00:45:19;;;;;;;6.95;3.53;;;;;;;15.25;64.50;98875.28;5032021;28;20021;-78
2022/08/30 00:47:45;;;;;;;5.80;3.92;;;;;;;15.23;64.33;98885.84;5030036;28;20046;-78
2022/08/30 00:50:15;;;;;;;7.43;3.55;;;;;;;15.21;64.33;98890.88;5019047;28;20056;-78
2022/08/30 00:52:44;;;;;;;8.25;4.15;;;;;;;15.17;64.41;98890.66;5036059;28;20032;-78
2022/08/30 00:55:13;;;;;;;;;;;;;;;15.15;64.58;98887.41;5038948;28;20028;-78
2022/08/30 00:57:40;;;;;;;7.40;3.85;;;;;;;15.10;64.31;98887.53;5038049;28;19992;-78
2022/08/30 01:00:07;;;;;;;7.75;4.18;;;;;;;15.08;64.67;98884.31;5037135;28;20082;-78
2022/08/30 01:02:33;;;;;;;6.18;3.70;;;;;;;15.05;64.82;98888.50;5030864;28;20032;-78
2022/08/30 01:05:01;;;;;;;6.53;3.70;;;;;;;15.02;64.67;98881.66;5030692;28;20014;-78
2022/08/30 01:07:27;;;;;;;6.07;3.70;;;;;;;14.99;64.56;98890.59;5030108;28;20052;-78
2022/08/30 01:09:54;;;;;;;7.57;4.13;;;;;;;14.97;64.52;98884.56;5014680;28;20120;-78
2022/08/30 01:12:19;;;;;;;7.05;4.13;;;;;;;14.94;64.71;98879.66;5028685;28;20032;-78
2022/08/30 01:14:45;;;;;;;6.90;3.90;;;;;;;14.93;64.91;98879.97;5028572;28;20390;-78
2022/08/30 01:17:10;;;;;;;9.32;4.45;;;;;;;14.89;64.51;98877.81;5043318;28;20082;-78
2022/08/30 01:19:54;;;;;;;8.10;4.05;;;;;;;14.85;64.62;98873.25;5035913;28;20091;-78
2022/08/30 01:22:31;;;;;;;8.48;4.13;;;;;;;14.83;64.92;98876.34;5029981;28;20072;-78
2022/08/30 01:24:59;;;;;;;9.10;4.20;;;;;;;14.79;64.91;98875.34;5013560;28;20034;-78
2022/08/30 01:27:27;;;;;;;10.80;4.47;;;;;;;14.76;64.91;98875.97;5030875;28;20144;-78
2022/08/30 01:29:54;;;;;;;11.48;4.60;;;;;;;14.71;65.08;98876.09;5034311;28;20025;-78
2022/08/30 01:32:27;;;;;;;9.02;4.25;;;;;;;14.65;65.39;98882.81;5041022;28;20064;-78
2022/08/30 01:34:53;;;;;;;7.50;3.80;;;;;;;14.62;65.26;98872.41;5034086;28;20120;-78
2022/08/30 01:37:27;;;;;;;8.85;4.40;;;;;;;14.62;65.36;98880.69;5031480;28;20105;-78
2022/08/30 01:39:52;;;;;;;7.63;4.63;;;;;;;14.61;65.65;98874.38;5032675;28;20136;-78
2022/08/30 01:42:18;;;;;;;7.15;4.32;;;;;;;14.64;65.53;98878.44;5034408;28;20094;-78
2022/08/30 01:44:44;;;;;;;8.27;4.28;;;;;;;14.65;65.45;98882.81;5037528;28;20477;-78
2022/08/30 01:47:10;;;;;;;7.95;4.30;;;;;;;14.64;65.75;98883.97;5042936;28;20513;-78
2022/08/30 01:49:36;;;;;;;6.90;4.53;;;;;;;14.64;65.88;98884.78;5036703;28;20410;-78
2022/08/30 01:52:03;;;;;;;7.95;4.28;;;;;;;14.65;65.97;98883.66;5028542;28;20037;-78
2022/08/30 01:54:30;;;;;;;7.25;4.38;;;;;;;14.65;65.91;98891.09;5031435;28;20040;-78
2022/08/30 01:56:56;;;;;;;7.53;4.45;;;;;;;14.66;65.71;98884.47;5028656;28;20096;-78
2022/08/30 01:59:21;;;;;;;8.20;4.82;;;;;;;14.65;65.87;98882.81;5028945;28;20064;-78
2022/08/30 02:01:46;;;;;;;9.32;5.13;;;;;;;14.64;65.67;98882.03;5027689;28;20033;-78
2022/08/30 02:04:13;;;;;;;10.02;4.80;;;;;;;14.64;66.06;98879.25;5018715;28;20040;-78
2022/08/30 02:06:39;;;;;;;11.43;4.97;;;;;;;14.65;65.89;98878.13;5027012;28;20029;-78
2022/08/30 02:09:05;;;;;;;8.85;4.97;;;;;;;14.65;65.99;98869.84;5030080;28;20037;-78
2022/08/30 02:11:30;;;;;;;10.05;5.10;;;;;;;14.67;66.36;98873.09;5031384;28;20029;-78
2022/08/30 02:13:55;;;;;;;9.95;5.28;;;;;;;14.67;66.46;98861.25;5030114;28;20041;-78
2022/08/30 02:16:23;;;;;;;13.55;5.47;;;;;;;14.68;66.48;98862.88;5026538;28;20037;-77
2022/08/30 02:18:52;;;;;;;9.55;5.20;;;;;;;14.68;66.48;98863.69;5039710;28;20040;-78
2022/08/30 02:21:18;;;;;;;13.40;6.10;;;;;;;14.69;66.58;98865.34;5046692;28;20029;-79
2022/08/30 02:23:45;;;;;;;16.75;6.95;;;;;;;14.69;66.88;98867.31;5037649;28;20040;-78
2022/08/30 02:26:11;;;;;;;13.45;6.38;;;;;;;14.70;66.69;98864.22;5028695;28;20037;-77
2022/08/30 02:28:37;;;;;;;14.23;6.97;;;;;;;14.70;66.52;98857.91;5040173;28;20104;-78
2022/08/30 02:31:02;;;;;;;16.42;7.07;;;;;;;14.71;67.00;98856.75;5023465;28;20099;-78
2022/08/30 02:33:28;;;;;;;18.13;7.53;;;;;;;14.73;66.83;98865.56;5016525;28;20041;-78
2022/08/30 02:35:54;;;;;;;16.25;7.45;;;;;;;14.73;66.53;98855.31;5021940;28;20264;-79
2022/08/30 02:38:22;;;;;;;13.60;7.30;;;;;;;14.73;66.59;98857.25;5024181;28;20041;-78
2022/08/30 02:40:48;;;;;;;17.30;8.05;;;;;;;14.74;66.89;98853.38;5014114;28;20053;-78
2022/08/30 02:43:15;;;;;;;18.23;7.88;;;;;;;14.72;66.62;98845.41;5024430;28;20060;-78
2022/08/30 02:45:40;;;;;;;16.02;8.15;;;;;;;14.72;66.56;98855.63;5024724;28;20454;-78
2022/08/30 02:48:06;;;;;;;18.33;8.55;;;;;;;14.69;66.44;98851.53;5026669;28;20049;-78
2022/08/30 02:50:32;;;;;;;19.23;8.15;;;;;;;14.69;66.76;98856.25;5013012;28;20087;-78
2022/08/30 02:52:57;;;;;;;21.52;8.50;;;;;;;14.67;66.42;98852.97;5028133;28;20026;-78
2022/08/30 02:55:23;;;;;;;16.17;8.15;;;;;;;14.66;66.36;98854.94;5010133;28;20527;-78
2022/08/30 02:57:48;;;;;;;17.65;8.25;;;;;;;14.66;66.78;98856.84;5010932;28;20037;-78
2022/08/30 03:00:17;;;;;;;22.48;8.77;;;;;;;14.64;66.69;98853.59;5034838;28;20124;-78
2022/08/30 03:02:43;;;;;;;20.30;8.27;;;;;;;14.61;66.68;98855.06;5032072;28;20426;-78
2022/08/30 03:05:11;;;;;;;18.42;8.48;;;;;;;14.59;66.54;98857.31;5028627;28;20029;-78
2022/08/30 03:07:37;;;;;;;20.98;8.50;;;;;;;14.57;66.74;98856.81;5013263;28;20050;-78
2022/08/30 03:10:04;;;;;;;19.70;8.15;;;;;;;14.56;66.50;98864.25;5049174;28;20096;-78
2022/08/30 03:12:31;;;;;;;15.43;7.63;;;;;;;14.53;66.63;98864.88;5032266;28;20034;-78
2022/08/30 03:14:57;;;;;;;16.15;8.02;;;;;;;14.51;66.55;98864.38;5027254;28;20483;-79
2022/08/30 03:17:23;;;;;;;16.48;8.05;;;;;;;14.49;66.66;98863.88;5030718;28;20136;-78
2022/08/30 03:19:48;;;;;;;18.67;7.97;;;;;;;14.47;66.61;98857.84;5030470;28;20506;-78
2022/08/30 03:22:14;;;;;;;17.13;8.48;;;;;;;14.45;66.79;98865.66;5027878;28;20053;-78
2022/08/30 03:24:39;;;;;;;18.85;8.32;;;;;;;14.40;66.46;98863.81;5024603;28;20072;-78
2022/08/30 03:27:06;;;;;;;17.48;7.65;;;;;;;14.38;66.43;98870.78;5029134;28;20506;-78
2022/08/30 03:29:31;;;;;;;15.63;8.18;;;;;;;14.35;66.40;98871.41;5025851;28;20489;-78
2022/08/30 03:31:57;;;;;;;15.38;7.65;;;;;;;14.31;66.53;98864.88;5023274;28;20033;-78
2022/08/30 03:34:24;;;;;;;14.32;7.35;;;;;;;14.26;66.47;98863.03;5026422;28;20582;-78
2022/08/30 03:36:52;;;;;;;16.23;7.32;;;;;;;14.21;66.64;98860.41;5026613;28;20045;-78
2022/08/30 03:39:18;;;;;;;18.13;7.07;;;;;;;14.18;66.58;98872.84;5026238;28;20112;-78
2022/08/30 03:41:44;;;;;;;16.95;7.78;;;;;;;14.14;66.81;98880.13;5028478;28;20144;-78
2022/08/30 03:44:10;;;;;;;16.17;7.22;;;;;;;14.10;66.60;98879.94;5010898;28;20116;-78
2022/08/30 03:46:36;;;;;;;19.48;8.25;;;;;;;14.06;66.75;98889.13;5026382;28;20468;-78
2022/08/30 03:49:02;;;;;;;19.40;7.40;;;;;;;14.03;66.88;98892.50;5029435;28;20078;-78
2022/08/30 03:51:28;;;;;;;16.02;7.13;;;;;;;14.02;66.92;98890.88;5030492;28;20041;-78
2022/08/30 03:53:53;;;;;;;13.35;6.90;;;;;;;13.99;67.18;98890.38;5031708;28;20047;-78
2022/08/30 03:56:19;;;;;;;17.85;7.45;;;;;;;13.99;67.02;98893.13;5030839;28;20038;-78
2022/08/30 03:58:45;;;;;;;17.33;6.75;;;;;;;14.02;67.35;98899.16;5031684;28;20116;-77
2022/08/30 04:01:10;;;;;;;13.75;7.22;;;;;;;14.02;67.23;98893.63;5031227;28;20030;-78
2022/08/30 04:03:36;;;;;;;13.73;6.72;;;;;;;14.01;67.23;98905.78;5010108;28;20038;-78
2022/08/30 04:06:02;;;;;;;13.80;6.68;;;;;;;14.01;67.37;98905.78;5037711;28;20033;-78
2022/08/30 04:08:27;;;;;;;17.58;6.38;;;;;;;13.97;67.43;98911.91;5033176;28;20116;-78
2022/08/30 04:10:54;;;;;;;13.05;6.03;;;;;;;13.94;67.36;98915.28;5032208;28;20048;-78
2022/08/30 04:13:20;;;;;;;14.13;6.00;;;;;;;13.94;67.69;98909.78;5036748;28;20719;-78
2022/08/30 04:15:46;;;;;;;14.93;5.97;;;;;;;13.95;67.48;98916.09;5023990;28;20033;-77
2022/08/30 04:18:12;;;;;;;13.18;5.63;;;;;;;13.95;67.78;98905.91;5029009;28;20047;-77
2022/08/30 04:20:38;;;;;;;13.95;6.55;;;;;;;13.97;67.72;98905.56;5032229;28;20482;-78
2022/08/30 04:23:06;;;;;;;14.98;6.00;;;;;;;13.99;67.71;98906.91;5032879;28;20036;-77
2022/08/30 04:25:37;;;;;;;12.38;6.00;;;;;;;14.04;68.17;98911.50;5029496;28;20021;-78
2022/08/30 04:28:04;;;;;;;12.00;6.53;;;;;;;14.09;68.24;98908.63;5032438;28;20034;-78
2022/08/30 04:30:31;;;;;;;10.90;6.00;;;;;;;14.12;68.17;98909.94;5027190;28;20490;-78
2022/08/30 04:32:57;;;;;;;12.05;5.80;;;;;;;14.13;68.45;98914.34;5030557;28;20040;-78
2022/08/30 04:35:22;;;;;;;10.85;6.03;;;;;;;14.18;68.43;98916.19;5028110;28;20040;-78
2022/08/30 04:37:48;;;;;;;10.63;5.53;;;;;;;14.21;68.29;98919.13;5032734;28;20033;-78
2022/08/30 04:40:14;;;;;;;9.98;5.38;;;;;;;14.25;68.73;98920.16;5027036;28;20033;-78
2022/08/30 04:42:41;;;;;;;11.57;5.75;;;;;;;14.31;68.75;98920.03;5030121;28;20057;-78
2022/08/30 04:45:11;;;;;;;11.27;6.10;;;;;;;14.34;68.70;98917.47;5026057;28;20032;-79
2022/08/30 04:47:37;;;;;;;11.10;5.75;;;;;;;14.37;68.69;98921.56;5030153;28;20057;-79
2022/08/30 04:50:04;;;;;;;11.07;5.93;;;;;;;14.40;68.81;98929.22;5030802;28;20112;-78
2022/08/30 04:52:30;;;;;;;11.43;5.25;;;;;;;14.42;69.04;98933.28;5031922;28;20036;-78
2022/08/30 04:54:56;;;;;;;12.80;6.00;;;;;;;14.48;69.40;98927.66;5036639;28;20029;-78
2022/08/30 04:57:23;;;;;;;12.07;5.85;;;;;;;14.49;69.54;98938.38;5013950;28;20036;-77
2022/08/30 04:59:48;;;;;;;13.30;7.70;;;;;;;14.50;69.78;98930.94;5029732;28;20739;-78
2022/08/30 05:02:14;;;;;;;9.65;5.35;;;;;;;14.52;69.42;98931.44;5031380;28;20435;-79
2022/08/30 05:05:38;;;;;;;11.68;5.47;;;;;;;14.56;69.61;98933.25;5029316;28;20136;-79
2022/08/30 05:07:24;;;;;;;11.82;5.80;;;;;;;14.63;69.71;98932.00;5035109;28;20095;-78
2022/08/30 05:09:50;;;;;;;11.98;6.00;;;;;;;14.66;69.59;98936.91;5033028;28;20499;-78
2022/08/30 05:12:15;;;;;;;10.52;6.40;;;;;;;14.69;69.96;98934.38;5032293;28;20030;-78
2022/08/30 05:14:40;;;;;;;13.68;6.20;;;;;;;14.74;70.01;98941.72;5013310;28;20501;-79
2022/08/30 05:17:06;;;;;;;11.52;6.47;;;;;;;14.81;69.87;98944.03;5031268;28;20060;-78
2022/08/30 05:19:32;;;;;;;11.07;6.10;;;;;;;14.84;69.82;98938.72;5032985;28;20044;-78
2022/08/30 05:21:58;;;;;;;13.35;6.80;;;;;;;14.88;70.39;98944.44;5025930;28;20037;-79
2022/08/30 05:24:24;;;;;;;11.73;6.25;;;;;;;14.91;70.56;98942.97;5031655;28;20057;-79
2022/08/30 05:26:50;;;;;;;10.57;5.63;;;;;;;14.93;70.21;98946.25;5028235;28;20052;-78
2022/08/30 05:29:15;;;;;;;10.98;5.80;;;;;;;14.95;70.26;98942.06;5031854;28;20056;-78
2022/08/30 05:31:43;;;;;;;9.85;5.47;;;;;;;14.99;70.24;98943.06;5024747;28;20030;-78
2022/08/30 05:34:09;;;;;;;10.60;5.90;;;;;;;15.05;70.39;98940.97;5029425;28;20360;-78
2022/08/30 05:36:35;;;;;;;9.95;6.00;;;;;;;15.15;70.25;98950.94;5033193;28;20042;-77
2022/08/30 05:39:02;;;;;;;10.00;5.35;;;;;;;15.20;70.53;98953.59;5032754;28;20029;-78
2022/08/30 05:41:27;;;;;;;12.10;6.57;;;;;;;15.25;70.37;98959.00;5028260;28;20033;-78
2022/08/30 05:43:58;;;;;;;13.63;6.30;;;;;;;15.31;70.51;98957.72;5029779;28;20293;-79
2022/08/30 05:46:24;;;;;;;13.80;6.63;;;;;;;15.38;70.72;98954.50;5032254;28;20542;-79
2022/08/30 05:48:50;;;;;;;13.55;6.88;;;;;;;15.44;70.58;98953.25;5030528;28;20447;-78
2022/08/30 05:51:22;;;;;;;14.38;6.75;;;;;;;15.50;70.22;98953.13;5029536;28;20113;-79
2022/08/30 05:53:50;;;;;;;14.95;7.25;;;;;;;15.55;70.73;98951.03;5027548;28;20114;-79
2022/08/30 05:56:19;;;;;;;13.45;6.78;;;;;;;15.58;70.86;98953.16;5030444;28;20099;-78
2022/08/30 05:58:45;;;;;;;;;;;;;;;15.63;70.15;98957.75;5015257;28;20433;-78
2022/08/30 06:01:24;;;;;;;13.27;6.18;;;;;;;15.68;70.33;98954.84;5025186;28;19913;-80
2022/08/30 06:03:51;;;;;;;12.00;6.28;;;;;;;15.73;70.66;98960.22;5026746;28;20076;-78
2022/08/30 06:06:16;;;;;;;10.90;6.05;;;;;;;15.80;70.56;98954.25;5029067;28;20076;-78
2022/08/30 06:08:44;;;;;;;10.70;6.28;;;;;;;15.87;70.63;98959.34;5036559;28;20061;-79
2022/08/30 06:11:11;;;;;;;12.35;7.15;;;;;;;15.93;70.77;98963.59;5038543;28;20065;-80
2022/08/30 06:13:37;;;;;;;12.63;6.47;;;;;;;16.01;70.86;98962.81;5011494;28;20482;-79
2022/08/30 06:16:03;;;;;;;11.63;5.88;;;;;;;16.06;70.65;98962.69;5026380;28;20040;-79
2022/08/30 06:18:28;;;;;;;12.65;7.22;;;;;;;16.12;70.79;98968.88;5030087;28;20026;-78
2022/08/30 06:20:53;;;;;;;11.18;6.13;;;;;;;16.18;70.90;98962.06;5029576;28;20084;-78
2022/08/30 06:23:19;;;;;;;10.30;6.13;;;;;;;16.25;70.70;98966.31;5032010;28;20386;-79
2022/08/30 06:25:44;;;;;;;10.45;6.05;;;;;;;16.32;70.81;98961.91;5033594;28;20029;-79
2022/08/30 06:28:10;;;;;;;13.75;5.80;;;;;;;16.39;70.91;98952.31;5027756;28;20029;-79
2022/08/30 06:30:40;;;;;;;11.90;6.25;;;;;;;16.48;70.66;98964.25;5031517;28;20037;-79
2022/08/30 06:33:05;;;;;;;10.55;5.70;;;;;;;16.52;70.57;98970.72;5029313;28;20056;-80
2022/08/30 06:35:31;;;;;;;11.23;5.70;;;;;;;16.58;70.72;98963.09;5031071;28;20360;-79
2022/08/30 06:37:57;;;;;;;8.93;5.22;;;;;;;16.64;70.47;98965.38;5042898;28;20029;-79
2022/08/30 06:40:24;;;;;;;9.80;5.53;;;;;;;16.70;70.63;98971.59;5031591;28;20029;-78
2022/08/30 06:42:50;;;;;;;10.55;5.57;;;;;;;16.74;70.50;98972.56;5027619;28;20025;-80
2022/08/30 06:45:16;;;;;;;9.23;5.80;;;;;;;16.77;70.92;98979.41;5027642;28;20368;-80
2022/08/30 06:47:42;;;;;;;8.20;5.85;;;;;;;16.85;70.44;98980.53;5026735;28;20037;-76
2022/08/30 06:50:11;;;;;;;9.02;5.53;;;;;;;16.91;70.69;98980.03;5029565;28;20026;-77
2022/08/30 06:52:37;;;;;;;11.18;5.88;;;;;;;16.99;70.67;98983.19;5029454;28;20448;-78
2022/08/30 06:55:03;;;;;;;7.63;4.88;;;;;;;17.06;71.06;98972.44;5030457;28;20079;-77
2022/08/30 06:57:28;;;;;;;8.82;5.60;;;;;;;17.10;70.24;98974.22;5006984;28;20042;-83
2022/08/30 06:59:55;;;;;;;9.65;5.25;;;;;;;17.16;70.23;98974.88;5029675;28;20026;-82
2022/08/30 07:02:21;;;;;;;7.50;5.15;;;;;;;17.23;70.50;98979.91;5024951;28;20047;-78
2022/08/30 07:04:47;;;;;;;8.07;5.22;;;;;;;17.30;70.52;98979.44;5023653;28;20045;-80
2022/08/30 07:07:13;;;;;;;9.00;5.45;;;;;;;17.35;70.10;98980.06;5029888;28;20024;-80
2022/08/30 07:09:42;;;;;;;6.82;5.55;;;;;;;17.40;70.37;98981.84;5023979;28;20041;-76
2022/08/30 07:12:11;;;;;;;9.52;5.05;;;;;;;17.46;70.06;98979.72;5026111;28;20034;-77
2022/08/30 07:14:37;;;;;;;10.63;5.68;;;;;;;17.52;70.20;98978.41;5029590;28;20034;-78
2022/08/30 07:18:49;;;;;;;7.05;4.88;;;;;;;17.58;70.26;98974.28;5023634;28;20367;-77
2022/08/30 07:19:52;;;;;;;7.05;5.53;;;;;;;17.65;69.88;98977.38;5017406;28;20088;-78
2022/08/30 07:22:18;;;;;;;8.88;5.10;;;;;;;17.71;70.05;98978.03;5019239;28;20038;-79
2022/08/30 07:24:44;;;;;;;8.45;5.35;;;;;;;17.77;70.23;98981.41;5028302;28;20112;-80
2022/08/30 07:27:09;;;;;;;8.38;5.50;;;;;;;17.84;69.84;98978.94;5022572;28;20502;-77
2022/08/30 07:29:34;;;;;;;9.88;5.45;;;;;;;17.90;70.06;98977.63;5029751;28;20033;-78
2022/08/30 07:32:00;;;;;;;7.57;5.63;;;;;;;17.96;70.04;98975.47;5004796;28;20065;-77
2022/08/30 07:34:26;;;;;;;8.80;5.75;;;;;;;18.02;70.05;98974.16;5041650;28;20386;-76
2022/08/30 07:36:51;;;;;;;9.73;6.10;;;;;;;18.10;69.69;98984.44;5027107;28;20108;-77
2022/08/30 07:39:17;;;;;;;11.15;5.90;;;;;;;18.21;69.91;98987.63;5024644;28;20026;-77
2022/08/30 07:41:43;;;;;;;8.27;5.95;;;;;;;18.33;69.90;98992.47;5024525;28;20026;-75
2022/08/30 07:44:09;;;;;;;8.48;5.18;;;;;;;18.44;69.79;98985.38;5031991;28;20036;-75
2022/08/30 07:46:36;;;;;;;7.10;5.15;;;;;;;18.55;69.68;98984.97;5024531;28;20069;-75
2022/08/30 07:49:01;;;;;;;6.97;4.78;;;;;;;18.65;69.50;98983.78;5027777;28;20129;-77
2022/08/30 07:51:27;;;;;;;6.72;4.57;;;;;;;18.73;69.27;98991.25;5020197;28;20082;-77
2022/08/30 07:53:54;;;;;;;8.13;5.00;;;;;;;18.81;69.13;98989.53;5020844;28;20112;-80
2022/08/30 07:56:21;;;;;;;6.82;4.10;;;;;;;18.86;68.73;98994.91;5020585;28;20129;-78
2022/08/30 07:58:47;;;;;;;4.68;3.83;;;;;;;18.87;68.55;98994.56;5027022;28;20390;-78
2022/08/30 08:01:13;;;;;;;6.90;4.43;;;;;;;18.91;68.17;99000.25;5025511;28;20032;-78
2022/08/30 08:03:41;;;;;;;6.78;4.38;;;;;;;18.95;68.27;98997.59;5026373;28;20770;-77
2022/08/30 08:06:08;;;;;;;5.80;4.05;;;;;;;18.99;68.05;98993.03;5024620;28;20030;-77
2022/08/30 08:08:35;;;;;;;6.85;4.35;;;;;;;19.06;67.83;98990.53;5023738;28;20045;-78
2022/08/30 08:11:14;;;;;;;6.78;4.50;;;;;;;19.14;67.96;98991.59;5025954;28;20026;-76
2022/08/30 08:13:42;;;;;;;7.65;5.32;;;;;;;19.23;67.66;98992.31;5006433;28;20386;-77
2022/08/30 08:16:08;;;;;;;6.97;4.43;;;;;;;19.27;67.95;98987.72;5029150;28;20029;-78
2022/08/30 08:18:34;;;;;;;6.75;4.07;;;;;;;19.31;67.36;98994.22;5024259;28;20030;-76
2022/08/30 08:21:00;;;;;;;6.45;4.28;;;;;;;19.32;67.09;98998.63;5029654;28;20021;-77
2022/08/30 08:23:27;;;;;;;7.28;4.38;;;;;;;19.30;66.89;99000.94;5032754;28;20505;-77
2022/08/30 08:25:53;;;;;;;6.97;5.70;;;;;;;19.29;66.74;98998.47;5041331;28;20017;-78
2022/08/30 08:28:18;;;;;;;8.65;4.88;;;;;;;19.28;66.80;98999.63;5046909;28;20534;-78
2022/08/30 08:30:44;;;;;;;5.88;3.50;;;;;;;19.34;66.98;99001.06;5028970;28;20029;-77
2022/08/30 08:33:12;;;;;;;5.22;3.38;;;;;;;19.40;66.39;98999.69;5024613;28;20017;-78
2022/08/30 08:35:37;;;;;;;4.07;3.22;;;;;;;19.46;66.63;98992.75;5029989;28;20033;-79
2022/08/30 08:38:03;;;;;;;6.28;3.60;;;;;;;19.53;66.22;98994.97;5031832;28;20022;-77
2022/08/30 08:40:37;;;;;;;6.00;3.40;;;;;;;19.62;66.13;98994.88;5033533;28;20494;-77
2022/08/30 08:43:12;;;;;;;6.28;4.43;;;;;;;19.66;66.01;98997.81;5030526;28;20056;-77
2022/08/30 08:45:52;;;;;;;3.92;2.95;;;;;;;19.70;65.61;98998.75;5026458;28;20029;-77
2022/08/30 08:48:45;;;;;;;3.85;2.88;;;;;;;19.73;65.30;98996.06;5031442;28;20064;-77
2022/08/30 08:54:09;;;;;;;4.53;3.15;;;;;;;19.88;65.19;98994.63;5029440;28;20035;-79
2022/08/30 08:56:36;;;;;;;5.35;4.15;;;;;;;19.96;65.08;98992.91;5024723;28;20044;-78
2022/08/30 08:59:01;;;;;;;6.45;4.60;;;;;;;20.01;64.81;98983.50;5051826;28;20047;-75
2022/08/30 09:01:28;;;;;;;4.57;3.35;;;;;;;20.05;64.75;98990.81;5033268;28;20025;-78
2022/08/30 09:04:01;;;;;;;4.75;3.50;;;;;;;20.08;64.57;98990.09;5021488;28;20087;-76
2022/08/30 09:06:47;;;;;;;5.43;3.58;;;;;;;20.13;64.73;98993.81;5028699;28;20034;-77
2022/08/30 09:09:16;;;;;;;7.03;3.90;;;;;;;20.19;64.12;98996.03;5029101;28;20491;-79
2022/08/30 09:11:42;;;;;;;4.65;2.95;;;;;;;20.22;64.26;98992.53;5026688;28;20112;-78
2022/08/30 09:14:12;;;;;;;4.20;2.92;;;;;;;20.26;64.06;98989.91;5027996;28;20105;-81
2022/08/30 09:17:14;;;;;;;4.43;3.60;;;;;;;20.34;63.99;98994.53;5038144;28;20514;-78
2022/08/30 09:19:45;;;;;;;4.15;2.88;;;;;;;20.47;63.75;98994.50;4963375;28;20043;-75
2022/08/30 09:22:43;;;;;;;3.55;2.70;;;;;;;20.55;62.27;98990.00;5020433;28;20048;-78
2022/08/30 09:25:11;;;;;;;3.72;3.20;;;;;;;20.56;62.64;98997.19;5027205;28;20046;-77
2022/08/30 09:27:42;;;;;;;4.43;3.15;;;;;;;20.59;62.70;98996.47;5033010;28;20052;-77
2022/08/30 09:30:16;;;;;;;4.50;3.00;;;;;;;20.65;62.86;98987.53;5031077;28;20040;-79
2022/08/30 09:32:53;;;;;;;3.90;2.70;;;;;;;20.73;63.00;98987.75;5029338;28;20033;-78
2022/08/30 09:35:33;;;;;;;4.35;3.95;;;;;;;20.83;62.63;98990.06;5019436;28;20055;-78
2022/08/30 09:38:28;;;;;;;4.80;4.00;;;;;;;20.92;62.47;98992.72;5000840;28;22227;-77
2022/08/30 09:40:55;;;;;;;4.00;2.70;;;;;;;21.02;62.01;98991.41;5025199;28;20032;-78
2022/08/30 09:43:25;;;;;;;4.15;3.08;;;;;;;21.08;61.98;98984.44;5028507;28;20025;-78
2022/08/30 09:45:59;;;;;;;4.55;3.67;;;;;;;21.18;61.34;98988.69;5029280;28;20434;-78
2022/08/30 09:48:35;;;;;;;5.00;3.47;;;;;;;21.23;61.47;98991.22;5029767;28;20025;-78
2022/08/30 09:51:09;;;;;;;5.53;3.47;;;;;;;21.29;61.77;98991.78;5025768;28;20029;-78
2022/08/30 09:54:01;;;;;;;5.53;4.25;;;;;;;21.34;61.85;98994.31;5027611;28;20092;-77
2022/08/30 09:56:50;;;;;;;4.45;3.53;;;;;;;21.29;60.57;98986.19;5014706;28;20037;-79
2022/08/30 09:59:18;;;;;;;7.45;3.45;;;;;;;21.20;60.78;98977.97;5026164;28;20022;-79
2022/08/30 10:02:03;;;;;;;5.35;3.92;;;;;;;21.20;60.47;98981.56;5027165;28;20041;-78
2022/08/30 10:04:40;;;;;;;3.97;3.30;;;;;;;21.23;60.84;98972.50;5032571;28;20025;-78
2022/08/30 10:07:17;;;;;;;5.57;3.03;;;;;;;21.29;61.01;98967.50;5027109;28;20045;-77
2022/08/30 10:09:55;;;;;;;4.82;3.33;;;;;;;21.34;60.60;98964.44;5023702;28;20049;-78
2022/08/30 10:12:32;;;;;;;5.32;2.88;;;;;;;21.40;61.22;98965.78;5020091;28;20064;-77
2022/08/30 10:15:13;;;;;;;4.10;2.90;;;;;;;21.53;61.51;98962.94;5025061;28;20038;-76
2022/08/30 10:17:52;;;;;;;3.10;2.75;;;;;;;21.59;60.66;98969.88;5031888;28;20108;-77
2022/08/30 10:20:24;;;;;;;3.30;2.63;;;;;;;21.54;60.02;98978.50;5025890;28;20030;-76
2022/08/30 10:22:59;;;;;;;4.70;2.35;;;;;;;21.49;59.72;98973.19;5025299;28;20037;-79
2022/08/30 10:25:38;;;;;;;3.33;2.33;;;;;;;21.41;59.72;98973.00;5010489;28;20804;-75
2022/08/30 10:28:07;;;;;;;4.78;2.85;;;;;;;21.41;59.71;98969.41;5028142;28;20028;-79
2022/08/30 10:30:37;;;;;;;3.70;2.80;;;;;;;21.36;59.37;98964.91;5029276;28;20087;-78
2022/08/30 10:33:19;;;;;;;4.05;2.80;;;;;;;21.33;59.41;98959.22;5015500;28;20083;-80
2022/08/30 10:35:51;;;;;;;5.80;2.90;;;;;;;21.34;59.35;98960.84;5027218;28;20380;-80
2022/08/30 10:38:39;;;;;;;5.80;3.35;;;;;;;21.38;59.53;98965.34;5031561;28;20033;-80
2022/08/30 10:41:25;;;;;;;5.68;3.20;;;;;;;21.48;60.01;98955.66;5022874;28;20124;-77
2022/08/30 10:44:03;;;;;;;4.05;3.20;;;;;;;21.60;59.63;98956.75;5031570;28;20403;-78
2022/08/30 10:46:36;;;;;;;3.33;2.67;;;;;;;21.63;59.32;98959.66;5024102;28;20578;-78
2022/08/30 10:49:08;;;;;;;3.13;2.63;;;;;;;21.65;58.64;98948.13;5037823;28;20025;-76
2022/08/30 10:51:49;;;;;;;5.88;2.70;;;;;;;21.66;58.58;98950.56;5032074;28;20360;-77
2022/08/30 10:54:28;;;;;;;3.38;2.35;;;;;;;21.74;58.42;98945.97;5027871;28;20091;-76
2022/08/30 10:56:55;;;;;;;;;;;;;;;21.82;58.00;98949.75;5029509;28;20295;-78
2022/08/30 10:59:20;;;;;;;2.50;1.95;;;;;;;21.85;57.33;98949.03;5027619;28;19917;-76
2022/08/30 11:02:25;;;;;;;4.35;2.35;;;;;;;21.92;56.11;98948.41;5028961;28;20100;-80
2022/08/30 11:05:30;;;;;;;4.35;2.40;;;;;;;22.00;57.15;98942.63;5026003;28;20083;-80
2022/08/30 11:08:33;;;;;;;3.60;2.38;;;;;;;22.09;56.99;98936.84;5025060;28;20035;-80
2022/08/30 11:11:04;;;;;;;2.72;2.25;;;;;;;22.20;57.30;98934.34;5032985;28;20038;-79
2022/08/30 11:13:34;;;;;;;3.85;2.50;;;;;;;22.22;56.96;98942.34;5028842;28;20091;-81
2022/08/30 11:16:07;;;;;;;3.67;2.70;;;;;;;22.23;57.12;98941.97;5014974;28;20045;-79
2022/08/30 11:18:55;;;;;;;2.72;2.45;;;;;;;22.21;56.67;98941.50;5022597;28;20522;-81
2022/08/30 11:21:38;;;;;;;3.97;2.38;;;;;;;22.18;56.69;98939.47;5048108;28;20104;-82
2022/08/30 11:24:09;;;;;;;4.82;2.65;;;;;;;22.11;56.26;98937.31;5048429;28;20053;-82
2022/08/30 11:26:49;;;;;;;3.10;2.42;;;;;;;22.10;56.29;98927.31;5047610;28;20041;-81
2022/08/30 11:29:33;;;;;;;3.53;2.15;;;;;;;22.16;56.68;98931.44;5048346;28;20429;-81
2022/08/30 11:32:21;;;;;;;2.80;2.10;;;;;;;22.19;56.62;98929.94;5047716;28;20029;-81
2022/08/30 11:34:46;;;;;;;2.78;2.35;;;;;;;22.29;56.30;98926.53;5026672;28;20483;-81
2022/08/30 11:37:42;;;;;;;2.45;2.20;;;;;;;22.37;56.47;98924.75;5023971;28;20033;-80
2022/08/30 11:40:19;;;;;;;3.78;2.10;;;;;;;22.51;55.73;98926.25;5009024;28;20782;-80
2022/08/30 11:42:49;;;;;;;2.92;2.20;;;;;;;22.62;54.68;98918.91;5026554;28;20033;-81
2022/08/30 11:45:23;;;;;;;3.88;2.08;;;;;;;22.70;55.20;98925.47;5027579;28;20030;-81